Time;durP1;ratioP1;P1;durP2;ratioP2;P2;SDS_P1;SDS_P2;PMS_P1;PMS_P2;Temp;Humidity;BMP_temperature;BMP_pressure;BME280_temperature;BME280_humidity;BME280_pressure;Samples;Min_cycle;Max_cycle;Signal;HPM_P1;HPM_P2
2022/09/21 00:00:26;;;;;;;;;15.25;14.75;;;;;15.94;43.54;102031.28;4982419;28;46413;-62
2022/09/21 00:02:55;;;;;;;;;12.25;12.25;;;;;15.90;43.84;102029.59;4982289;28;45310;-61
2022/09/21 00:05:21;;;;;;;;;13.50;12.50;;;;;15.87;43.67;102033.19;4965297;28;45266;-61
2022/09/21 00:07:46;;;;;;;;;13.25;11.75;;;;;15.83;43.70;102025.28;4982763;28;45330;-62
2022/09/21 00:10:11;;;;;;;;;13.75;13.75;;;;;15.78;43.66;102022.66;4982238;28;45390;-62
2022/09/21 00:12:40;;;;;;;;;12.00;12.00;;;;;15.73;43.52;102029.81;4982618;28;45270;-62
2022/09/21 00:15:08;;;;;;;;;16.25;14.75;;;;;15.73;43.54;102029.81;4982703;28;45346;-61
2022/09/21 00:17:33;;;;;;;;;19.00;14.50;;;;;15.67;43.44;102014.00;4982585;28;45329;-61
2022/09/21 00:20:01;;;;;;;;;11.25;10.00;;;;;15.64;43.69;102022.03;4964713;28;45524;-63
2022/09/21 00:22:26;;;;;;;;;14.75;14.50;;;;;15.53;43.58;102011.56;4982385;28;45430;-63
2022/09/21 00:24:51;;;;;;;;;11.50;10.50;;;;;15.58;43.41;102029.16;4982222;28;45329;-63
2022/09/21 00:27:17;;;;;;;;;16.00;14.25;;;;;15.54;43.92;102032.72;4981673;28;45379;-62
2022/09/21 00:29:42;;;;;;;;;12.25;11.00;;;;;15.49;43.83;102025.75;4982255;28;46191;-67
2022/09/21 00:32:07;;;;;;;;;14.50;11.50;;;;;15.50;43.57;102028.38;4970349;28;45378;-67
2022/09/21 00:34:33;;;;;;;;;12.25;11.50;;;;;15.47;43.55;102031.09;4982578;28;45326;-67
2022/09/21 00:36:58;;;;;;;;;11.25;11.25;;;;;15.44;43.86;102029.38;4964683;28;45361;-66
2022/09/21 00:39:23;;;;;;;;;11.00;8.50;;;;;15.37;43.61;102019.75;4982169;28;46113;-66
2022/09/21 00:41:52;;;;;;;;;11.00;10.25;;;;;15.39;44.16;102027.66;4964594;28;45329;-66
2022/09/21 00:44:28;;;;;;;;;13.25;11.75;;;;;15.34;44.04;102024.19;4981414;28;45189;-67
2022/09/21 00:46:59;;;;;;;;;12.50;10.00;;;;;15.30;44.07;102025.16;4982287;28;45176;-67
2022/09/21 00:49:27;;;;;;;;;12.25;11.00;;;;;15.27;43.78;102026.94;4973466;28;45512;-67
2022/09/21 00:51:53;;;;;;;;;12.00;10.25;;;;;15.28;43.96;102033.09;4964100;28;45272;-66
2022/09/21 00:54:27;;;;;;;;;14.75;12.75;;;;;15.23;43.67;102029.63;4981956;28;45249;-67
2022/09/21 00:56:54;;;;;;;;;11.50;10.50;;;;;15.23;43.93;102035.81;4982059;28;45240;-66
2022/09/21 00:59:19;;;;;;;;;12.50;11.00;;;;;15.21;44.01;102032.31;4963585;28;47081;-67
2022/09/21 01:01:46;;;;;;;;;14.00;11.25;;;;;15.18;44.01;102042.94;4963806;28;45268;-66
2022/09/21 01:04:13;;;;;;;;;10.25;10.25;;;;;15.13;44.08;102033.31;4954739;28;45622;-66
2022/09/21 01:06:40;;;;;;;;;9.00;7.00;;;;;15.13;44.02;102036.81;4981177;28;45370;-66
2022/09/21 01:09:06;;;;;;;;;12.75;11.25;;;;;15.10;44.58;102037.72;4980721;28;45502;-67
2022/09/21 01:11:39;;;;;;;;;10.25;10.00;;;;;15.08;44.02;102036.00;4981683;28;45315;-67
2022/09/21 01:14:24;;;;;;;;;11.00;9.75;;;;;14.99;44.08;102031.69;4980917;28;45419;-67
2022/09/21 01:17:14;;;;;;;;;11.25;10.00;;;;;15.02;44.49;102042.25;4981878;28;45389;-67
2022/09/21 01:20:25;;;;;;;;;11.75;10.25;;;;;14.97;44.45;102032.59;4980192;28;46326;-68
2022/09/21 01:23:07;;;;;;;;;11.50;9.25;;;;;14.94;44.42;102039.72;4919835;28;45423;-68
2022/09/21 01:25:48;;;;;;;;;9.50;9.50;;;;;14.93;44.31;102042.34;4962970;28;45328;-68
2022/09/21 01:28:31;;;;;;;;;13.00;11.75;;;;;14.90;44.31;102035.31;4963409;28;45484;-68
2022/09/21 01:31:04;;;;;;;;;7.75;7.75;;;;;14.88;44.25;102036.22;4963892;28;46644;-68
2022/09/21 01:33:38;;;;;;;;;11.25;11.25;;;;;14.83;44.59;102032.78;4981365;28;45283;-68
2022/09/21 01:36:11;;;;;;;;;12.75;10.75;;;;;14.82;44.29;102039.84;4981884;28;45404;-68
2022/09/21 01:38:43;;;;;;;;;15.25;14.00;;;;;14.77;44.72;102039.88;4963132;28;45424;-68
2022/09/21 01:41:13;;;;;;;;;11.00;10.00;;;;;14.79;44.83;102045.16;4981095;28;46302;-68
2022/09/21 01:43:48;;;;;;;;;10.75;10.75;;;;;14.72;44.46;102038.19;4963574;28;45412;-68
2022/09/21 01:46:18;;;;;;;;;9.00;9.00;;;;;14.71;44.58;102042.59;4981506;28;45365;-68
2022/09/21 01:48:48;;;;;;;;;11.00;8.25;;;;;14.69;44.69;102039.09;4981348;28;45456;-68
2022/09/21 01:51:18;;;;;;;;;7.50;7.50;;;;;14.67;44.59;102040.88;4981151;28;45418;-68
2022/09/21 01:54:08;;;;;;;;;12.50;9.50;;;;;14.63;44.48;102036.50;4981301;28;45239;-68
2022/09/21 01:56:44;;;;;;;;;10.75;9.25;;;;;14.63;44.89;102033.84;4981260;28;45375;-68
2022/09/21 01:59:20;;;;;;;;;10.00;6.50;;;;;14.60;44.76;102040.06;4980885;28;45287;-68
2022/09/21 02:01:57;;;;;;;;;6.00;6.00;;;;;14.58;45.08;102040.97;4981037;28;46204;-68
2022/09/21 02:04:23;;;;;;;;;8.25;7.75;;;;;14.56;44.91;102043.59;4964351;28;45177;-68
2022/09/21 02:06:49;;;;;;;;;9.00;8.25;;;;;14.51;45.20;102032.19;4944621;28;45386;-68
2022/09/21 02:09:16;;;;;;;;;8.75;8.50;;;;;14.52;44.89;102039.25;4943782;28;45281;-68
2022/09/21 02:11:43;;;;;;;;;8.00;8.00;;;;;14.51;44.65;102039.25;4972114;28;46164;-68
2022/09/21 02:14:11;;;;;;;;;8.00;8.00;;;;;14.50;45.06;102038.38;4980724;28;45411;-68
2022/09/21 02:16:58;;;;;;;;;8.00;7.25;;;;;14.47;45.04;102038.41;4963782;28;45443;-68
2022/09/21 02:19:44;;;;;;;;;10.25;8.00;;;;;14.39;45.04;102014.69;4980763;28;46027;-67
2022/09/21 02:22:21;;;;;;;;;10.00;7.75;;;;;14.40;45.04;102027.03;4980624;28;45231;-68
2022/09/21 02:24:53;;;;;;;;;9.25;8.00;;;;;14.40;45.32;102032.31;4963058;28;45389;-68
2022/09/21 02:27:25;;;;;;;;;8.00;6.50;;;;;14.39;45.14;102027.00;4980190;28;45438;-68
2022/09/21 02:30:01;;;;;;;;;11.00;8.50;;;;;14.38;45.42;102027.94;4980730;28;45263;-68
2022/09/21 02:33:04;;;;;;;;;9.25;9.25;;;;;14.38;45.62;102038.50;4980766;28;46227;-68
2022/09/21 02:35:56;;;;;;;;;8.25;7.50;;;;;14.35;45.47;102028.84;4980764;28;45638;-67
2022/09/21 02:38:28;;;;;;;;;7.75;6.25;;;;;14.34;45.25;102031.47;4979536;28;45263;-68
2022/09/21 02:41:15;;;;;;;;;10.00;9.25;;;;;14.30;45.46;102031.53;4980394;28;45473;-67
2022/09/21 02:43:48;;;;;;;;;7.75;7.00;;;;;14.21;45.58;102007.78;4963151;28;48456;-68
2022/09/21 02:46:18;;;;;;;;;8.25;6.50;;;;;14.29;45.48;102024.47;4980555;28;45437;-68
2022/09/21 02:48:48;;;;;;;;;9.25;7.50;;;;;14.24;45.58;102014.84;4980723;28;45377;-67
2022/09/21 02:51:24;;;;;;;;;7.00;6.25;;;;;14.23;45.39;102015.72;4979441;28;45260;-67
2022/09/21 02:53:53;;;;;;;;;7.25;7.25;;;;;14.24;45.36;102009.56;4980520;28;45426;-67
2022/09/21 02:56:19;;;;;;;;;8.25;8.25;;;;;14.19;45.90;102008.69;4979337;28;45441;-67
2022/09/21 02:58:49;;;;;;;;;9.00;8.00;;;;;14.15;45.96;102002.59;4980257;28;45481;-68
2022/09/21 03:01:17;;;;;;;;;7.00;7.00;;;;;14.20;45.65;102014.00;4980302;28;45472;-67
2022/09/21 03:03:43;;;;;;;;;9.50;8.00;;;;;14.19;45.94;102012.22;4956411;28;48098;-67
2022/09/21 03:06:09;;;;;;;;;9.00;7.50;;;;;14.18;45.53;102015.75;4978662;28;45442;-67
2022/09/21 03:08:34;;;;;;;;;11.25;9.00;;;;;14.12;45.78;102002.59;4980364;28;45319;-67
2022/09/21 03:11:00;;;;;;;;;12.00;8.75;;;;;14.10;45.44;101994.69;4979864;28;46766;-67
2022/09/21 03:13:25;;;;;;;;;8.00;7.25;;;;;14.13;45.99;102007.00;4980331;28;45319;-67
2022/09/21 03:15:59;;;;;;;;;8.00;6.25;;;;;14.13;45.83;102010.50;4980109;28;45446;-67
2022/09/21 03:18:24;;;;;;;;;8.00;8.00;;;;;14.08;45.73;102004.38;4961950;28;45339;-67
2022/09/21 03:20:50;;;;;;;;;12.50;10.75;;;;;14.11;45.82;102016.69;4958861;28;45328;-67
2022/09/21 03:23:15;;;;;;;;;9.50;8.00;;;;;14.08;45.90;102019.38;4973180;28;45315;-67
2022/09/21 03:25:44;;;;;;;;;37.50;32.50;;;;;14.07;45.84;102017.63;4979687;28;45304;-67
2022/09/21 03:28:09;;;;;;;;;15.50;12.50;;;;;14.02;46.15;102007.09;4980073;28;45497;-67
2022/09/21 03:30:35;;;;;;;;;16.50;15.00;;;;;14.01;45.79;102013.25;4979847;28;45252;-67
2022/09/21 03:33:00;;;;;;;;;9.50;6.50;;;;;14.03;46.09;102016.78;4980022;28;45290;-67
2022/09/21 03:35:26;;;;;;;;;12.25;10.00;;;;;14.01;46.28;102017.66;4980018;28;45244;-67
2022/09/21 03:37:51;;;;;;;;;11.50;8.00;;;;;13.96;46.10;102015.94;4980071;28;45307;-67
2022/09/21 03:40:18;;;;;;;;;6.50;5.75;;;;;13.99;46.01;102015.03;4962227;28;45625;-65
2022/09/21 03:42:43;;;;;;;;;11.00;10.50;;;;;13.93;46.07;102015.09;4979652;28;46183;-67
2022/09/21 03:45:10;;;;;;;;;8.00;8.00;;;;;13.94;46.22;102007.16;4979792;28;45323;-67
2022/09/21 03:47:37;;;;;;;;;6.00;6.00;;;;;13.93;46.08;102018.59;4980148;28;45339;-67
2022/09/21 03:50:03;;;;;;;;;11.50;11.25;;;;;13.92;46.41;102016.88;4979677;28;45354;-67
2022/09/21 03:52:28;;;;;;;;;10.25;8.00;;;;;13.88;46.30;102008.97;4979614;28;45376;-67
2022/09/21 03:54:54;;;;;;;;;11.25;10.00;;;;;13.80;46.22;102009.03;4979458;28;47197;-67
2022/09/21 03:57:20;;;;;;;;;15.75;12.25;;;;;13.82;46.46;102012.53;4979847;28;45210;-67
2022/09/21 03:59:45;;;;;;;;;9.50;9.50;;;;;13.84;46.07;102020.47;4979577;28;45616;-67
2022/09/21 04:02:10;;;;;;;;;14.00;13.00;;;;;13.84;46.27;102021.31;4980870;28;50792;-67
2022/09/21 04:04:36;;;;;;;;;12.25;11.50;;;;;13.79;46.38;102016.06;4963744;28;45164;-67
2022/09/21 04:07:01;;;;;;;;;14.00;12.25;;;;;13.80;46.50;102019.59;4976573;28;45512;-67
2022/09/21 04:09:27;;;;;;;;;16.00;12.25;;;;;13.79;46.51;102020.47;4982651;28;45457;-67
2022/09/21 04:11:52;;;;;;;;;17.25;12.25;;;;;13.76;46.29;102024.03;4982898;28;45591;-66
2022/09/21 04:14:18;;;;;;;;;13.50;13.00;;;;;13.73;46.58;102012.59;4982673;28;45445;-66
2022/09/21 04:16:44;;;;;;;;;13.25;10.50;;;;;13.73;46.63;102021.38;4983143;28;45492;-67
2022/09/21 04:19:09;;;;;;;;;12.50;10.50;;;;;13.69;46.65;102016.16;4982318;28;45374;-67
2022/09/21 04:21:35;;;;;;;;;17.25;13.00;;;;;13.71;46.64;102019.66;4983044;28;45369;-67
2022/09/21 04:24:00;;;;;;;;;13.50;12.50;;;;;13.66;46.35;102017.06;4982468;28;45349;-67
2022/09/21 04:26:32;;;;;;;;;11.25;11.00;;;;;13.67;46.87;102013.50;4965516;28;45310;-67
2022/09/21 04:28:58;;;;;;;;;14.50;11.25;;;;;13.65;46.92;102010.88;4982348;28;45532;-67
2022/09/21 04:31:25;;;;;;;;;13.50;10.75;;;;;13.65;46.74;102015.31;4982497;28;45670;-67
2022/09/21 04:33:52;;;;;;;;;11.00;10.25;;;;;13.63;46.74;102022.34;4964214;28;45475;-67
2022/09/21 04:36:18;;;;;;;;;13.25;12.25;;;;;13.61;46.59;102016.19;4982626;28;45327;-67
2022/09/21 04:38:44;;;;;;;;;13.00;10.75;;;;;13.62;47.06;102024.13;4982396;28;45239;-67
2022/09/21 04:41:10;;;;;;;;;12.50;11.25;;;;;13.61;46.75;102014.44;4981994;28;45351;-67
2022/09/21 04:43:35;;;;;;;;;13.25;10.25;;;;;13.58;46.57;102010.94;4982361;28;45272;-67
2022/09/21 04:46:06;;;;;;;;;11.00;11.00;;;;;13.57;46.73;102006.53;4982566;28;45144;-67
2022/09/21 04:48:31;;;;;;;;;12.50;9.50;;;;;13.57;47.06;102012.72;4982274;28;45458;-66
2022/09/21 04:50:56;;;;;;;;;11.25;11.25;;;;;13.57;46.75;102014.47;4964607;28;46048;-67
2022/09/21 04:53:22;;;;;;;;;13.00;11.00;;;;;13.53;47.08;102018.88;4964638;28;45232;-67
2022/09/21 04:55:47;;;;;;;;;14.50;13.00;;;;;13.54;47.00;102023.28;4982183;28;45224;-66
2022/09/21 04:58:12;;;;;;;;;13.50;11.25;;;;;13.51;46.65;102020.69;4982074;28;45176;-66
2022/09/21 05:00:38;;;;;;;;;16.00;13.50;;;;;13.51;46.95;102018.03;4981905;28;45415;-67
2022/09/21 05:03:03;;;;;;;;;12.25;10.25;;;;;13.46;47.13;102017.19;4976979;28;45240;-67
2022/09/21 05:05:28;;;;;;;;;11.25;11.25;;;;;13.51;47.10;102022.41;4974250;28;45256;-67
2022/09/21 05:07:54;;;;;;;;;13.50;9.25;;;;;13.49;46.91;102027.72;4981945;28;45236;-67
2022/09/21 05:10:19;;;;;;;;;10.00;10.00;;;;;13.48;46.98;102033.88;4981871;28;45398;-66
2022/09/21 05:12:45;;;;;;;;;12.25;11.25;;;;;13.44;47.06;102021.59;4981030;28;45389;-65
2022/09/21 05:15:11;;;;;;;;;15.50;11.25;;;;;13.46;47.26;102027.75;4981637;28;45189;-66
2022/09/21 05:17:36;;;;;;;;;11.00;11.00;;;;;13.41;47.15;102013.66;4964198;28;45441;-67
2022/09/21 05:20:02;;;;;;;;;12.00;11.00;;;;;13.44;47.02;102021.59;4981645;28;47221;-66
2022/09/21 05:22:28;;;;;;;;;10.75;10.00;;;;;13.42;47.41;102013.69;4981710;28;45315;-66
2022/09/21 05:24:54;;;;;;;;;14.00;10.75;;;;;13.39;47.02;102016.31;4981756;28;45366;-65
2022/09/21 05:27:20;;;;;;;;;12.00;12.00;;;;;13.38;47.37;102025.13;4981637;28;45447;-65
2022/09/21 05:29:45;;;;;;;;;13.50;11.25;;;;;13.39;47.32;102023.38;4981513;28;46212;-65
2022/09/21 05:32:15;;;;;;;;;15.25;13.00;;;;;13.37;47.29;102020.75;4981546;28;45279;-66
2022/09/21 05:35:08;;;;;;;;;11.50;11.50;;;;;13.32;47.26;102023.38;4981642;28;45171;-66
2022/09/21 05:37:43;;;;;;;;;13.25;13.00;;;;;13.34;47.40;102026.00;4981677;28;45261;-66
2022/09/21 05:40:11;;;;;;;;;14.75;11.75;;;;;13.30;47.45;102022.50;4981220;28;45333;-66
2022/09/21 05:42:37;;;;;;;;;13.00;13.00;;;;;13.28;47.29;102019.00;4981209;28;45355;-66
2022/09/21 05:45:03;;;;;;;;;14.50;12.00;;;;;13.30;47.44;102029.56;4981499;28;45286;-66
2022/09/21 05:47:51;;;;;;;;;12.25;9.50;;;;;13.29;47.33;102036.56;4981458;28;45255;-66
2022/09/21 05:50:41;;;;;;;;;14.75;11.75;;;;;13.25;47.29;102032.19;4981330;28;46304;-65
2022/09/21 05:53:21;;;;;;;;;11.75;11.75;;;;;13.25;47.33;102032.19;4969176;28;45555;-66
2022/09/21 05:55:59;;;;;;;;;13.50;11.75;;;;;13.25;47.58;102023.41;4963035;28;45485;-66
2022/09/21 05:58:30;;;;;;;;;11.75;10.00;;;;;13.24;47.61;102030.44;4980889;28;45573;-66
2022/09/21 06:00:58;;;;;;;;;11.25;10.75;;;;;13.24;47.62;102026.94;4980401;28;45457;-66
2022/09/21 06:03:29;;;;;;;;;12.75;10.25;;;;;13.23;47.33;102028.72;4958397;28;45195;-66
2022/09/21 06:05:55;;;;;;;;;12.00;10.50;;;;;13.23;47.87;102031.34;4980962;28;45409;-66
2022/09/21 06:08:21;;;;;;;;;13.00;11.00;;;;;13.23;47.63;102025.19;4980467;28;45479;-66
2022/09/21 06:10:47;;;;;;;;;10.75;10.00;;;;;13.21;47.62;102032.25;4979570;28;45367;-66
2022/09/21 06:13:12;;;;;;;;;14.00;11.25;;;;;13.21;47.61;102033.13;4980690;28;45254;-67
2022/09/21 06:15:38;;;;;;;;;14.50;9.25;;;;;13.12;47.79;102006.78;4952899;28;45360;-67
2022/09/21 06:18:04;;;;;;;;;12.75;12.50;;;;;13.23;47.63;102027.81;4978421;28;45447;-66
2022/09/21 06:20:30;;;;;;;;;13.75;12.50;;;;;13.22;47.96;102026.06;4960074;28;47745;-66
2022/09/21 06:23:03;;;;;;;;;14.50;12.50;;;;;13.23;47.93;102028.72;4980359;28;45184;-66
2022/09/21 06:25:28;;;;;;;;;16.00;15.00;;;;;13.24;47.45;102029.56;4977940;28;45323;-66
2022/09/21 06:27:54;;;;;;;;;17.50;12.25;;;;;13.22;47.78;102023.41;4980552;28;45295;-66
2022/09/21 06:30:20;;;;;;;;;15.50;12.25;;;;;13.19;47.53;102019.03;4980190;28;46203;-66
2022/09/21 06:32:45;;;;;;;;;9.75;8.50;;;;;13.21;47.72;102025.19;4978530;28;45326;-66
2022/09/21 06:35:10;;;;;;;;;15.50;12.25;;;;;13.21;47.94;102030.47;4963203;28;45341;-65
2022/09/21 06:37:38;;;;;;;;;18.00;14.75;;;;;13.24;47.80;102034.84;4963009;28;45497;-66
2022/09/21 06:40:05;;;;;;;;;14.75;13.75;;;;;13.22;47.86;102031.34;4980162;28;47193;-66
2022/09/21 06:42:30;;;;;;;;;17.50;14.75;;;;;13.28;47.77;102047.16;4951068;28;45412;-67
2022/09/21 06:44:55;;;;;;;;;14.75;14.50;;;;;13.23;48.01;102036.63;4978510;28;53111;-67
2022/09/21 06:47:21;;;;;;;;;15.50;14.25;;;;;13.24;48.17;102041.00;4960268;28;45609;-67
2022/09/21 06:49:46;;;;;;;;;16.00;15.75;;;;;13.28;48.15;102037.47;4979746;28;46030;-67
2022/09/21 06:52:11;;;;;;;;;19.25;15.25;;;;;13.30;47.88;102040.97;4973180;28;48018;-67
2022/09/21 06:54:38;;;;;;;;;14.00;12.50;;;;;13.36;48.26;102036.53;4974649;28;45228;-66
2022/09/21 06:57:03;;;;;;;;;25.00;19.25;;;;;13.37;47.82;102044.53;4962482;28;45340;-66
2022/09/21 06:59:29;;;;;;;;;17.00;16.25;;;;;13.37;47.91;102038.31;4970302;28;45480;-66
2022/09/21 07:01:57;;;;;;;;;20.00;16.50;;;;;13.40;48.37;102038.34;4979994;28;45429;-66
2022/09/21 07:04:23;;;;;;;;;25.75;23.25;;;;;13.42;48.26;102039.19;4980090;28;45338;-66
2022/09/21 07:06:49;;;;;;;;;21.00;19.50;;;;;13.42;48.12;102028.63;4980011;28;45326;-66
2022/09/21 07:09:14;;;;;;;;;19.75;19.50;;;;;13.44;48.14;102033.00;4959859;28;46696;-66
2022/09/21 07:11:40;;;;;;;;;20.00;16.00;;;;;13.44;48.15;102032.16;4980144;28;45320;-66
2022/09/21 07:14:06;;;;;;;;;16.25;14.75;;;;;13.52;48.21;102037.38;4962082;28;45324;-65
2022/09/21 07:16:32;;;;;;;;;18.50;15.25;;;;;13.54;48.16;102038.25;4980261;28;45331;-65
2022/09/21 07:18:57;;;;;;;;;16.25;16.25;;;;;13.57;48.43;102039.13;4979898;28;46159;-66
2022/09/21 07:21:22;;;;;;;;;11.50;11.00;;;;;13.61;48.38;102035.56;4980001;28;45263;-65
2022/09/21 07:23:48;;;;;;;;;14.25;14.25;;;;;13.60;48.36;102028.53;4962289;28;45298;-66
2022/09/21 07:26:13;;;;;;;;;16.00;13.50;;;;;13.67;48.13;102028.50;4979914;28;45639;-66
2022/09/21 07:28:40;;;;;;;;;16.75;13.50;;;;;13.70;48.43;102037.28;4959328;28;46992;-66
2022/09/21 07:31:14;;;;;;;;;14.25;13.00;;;;;13.74;48.29;102031.06;4980238;28;45248;-66
2022/09/21 07:33:40;;;;;;;;;14.75;12.75;;;;;13.75;48.18;102030.19;4979882;28;45374;-66
2022/09/21 07:36:09;;;;;;;;;16.00;13.75;;;;;13.84;48.40;102038.97;4979981;28;45351;-66
2022/09/21 07:38:36;;;;;;;;;16.50;12.00;;;;;13.88;48.35;102032.75;4965468;28;45398;-66
2022/09/21 07:41:02;;;;;;;;;13.00;13.00;;;;;13.92;48.24;102029.19;4964679;28;45295;-66
2022/09/21 07:43:28;;;;;;;;;13.75;12.25;;;;;13.97;48.47;102027.38;4983144;28;45449;-66
2022/09/21 07:45:57;;;;;;;;;20.00;16.25;;;;;14.02;48.59;102030.00;4983188;28;45302;-66
2022/09/21 07:48:23;;;;;;;;;15.25;15.25;;;;;14.03;48.27;102021.19;4965240;28;48471;-66
2022/09/21 07:50:48;;;;;;;;;18.00;14.00;;;;;14.11;48.42;102019.34;4982588;28;45510;-66
2022/09/21 07:53:16;;;;;;;;;15.00;13.75;;;;;14.17;48.38;102014.00;4982755;28;45422;-66
2022/09/21 07:55:42;;;;;;;;;17.00;15.75;;;;;14.23;48.49;102013.94;4945376;28;46463;-66
2022/09/21 08:00:51;;;;;;;;;18.00;16.50;;;;;14.39;47.99;102016.44;4971014;28;45267;-66
2022/09/21 08:03:17;;;;;;;;;13.75;11.75;;;;;14.42;48.77;102014.66;4982193;28;45173;-66
2022/09/21 08:05:42;;;;;;;;;15.75;15.50;;;;;14.47;48.77;102006.66;4946130;28;45462;-66
2022/09/21 08:08:07;;;;;;;;;16.25;13.00;;;;;14.57;48.39;102018.03;4977013;28;47777;-66
2022/09/21 08:10:34;;;;;;;;;15.50;14.25;;;;;14.61;48.28;102010.03;4982729;28;45430;-66
2022/09/21 08:12:59;;;;;;;;;15.25;11.25;;;;;14.72;48.73;102015.25;4982784;28;45172;-66
2022/09/21 08:15:26;;;;;;;;;14.00;9.50;;;;;14.72;48.39;102006.44;4982758;28;45420;-66
2022/09/21 08:17:52;;;;;;;;;15.00;15.00;;;;;14.81;48.87;102011.63;4982878;28;45695;-66
2022/09/21 08:20:18;;;;;;;;;12.50;10.50;;;;;14.91;48.45;102028.28;4982528;28;45403;-66
2022/09/21 08:22:43;;;;;;;;;18.00;15.00;;;;;14.95;48.43;102019.41;4962615;28;45347;-66
2022/09/21 08:25:09;;;;;;;;;13.50;12.50;;;;;15.05;48.76;102020.16;4964181;28;45423;-66
2022/09/21 08:27:35;;;;;;;;;18.25;15.50;;;;;15.14;48.34;102025.34;4964666;28;47101;-66
2022/09/21 08:30:01;;;;;;;;;12.00;11.25;;;;;15.22;48.86;102025.22;4964699;28;45442;-66
2022/09/21 08:32:27;;;;;;;;;17.50;13.50;;;;;15.27;48.46;102016.34;4982498;28;45168;-66
2022/09/21 08:34:53;;;;;;;;;14.50;11.50;;;;;15.39;48.27;102025.88;4982548;28;45248;-66
2022/09/21 08:37:20;;;;;;;;;17.00;12.75;;;;;15.48;48.73;102024.88;4982153;28;45983;-66
2022/09/21 08:39:46;;;;;;;;;15.75;10.25;;;;;15.55;48.27;102017.72;4982208;28;45299;-66
2022/09/21 08:42:33;;;;;;;;;13.50;11.75;;;;;15.64;48.24;102016.72;4982136;28;45298;-66
2022/09/21 08:45:05;;;;;;;;;12.25;11.00;;;;;15.71;48.18;102015.69;4964225;28;45625;-66
2022/09/21 08:47:39;;;;;;;;;12.50;10.25;;;;;15.87;48.61;102025.22;4982047;28;46260;-66
2022/09/21 08:50:21;;;;;;;;;12.50;12.50;;;;;15.96;48.26;102016.25;4982030;28;45303;-66
2022/09/21 08:52:53;;;;;;;;;13.75;11.75;;;;;16.04;48.28;102014.31;4964305;28;45434;-66
2022/09/21 08:55:20;;;;;;;;;12.75;11.50;;;;;16.18;48.34;102019.38;4964292;28;45462;-66
2022/09/21 08:57:45;;;;;;;;;11.50;11.50;;;;;16.26;48.34;102011.28;4981923;28;46579;-66
2022/09/21 09:00:16;;;;;;;;;9.25;7.50;;;;;16.35;48.23;102019.09;4981848;28;45350;-66
2022/09/21 09:03:19;;;;;;;;;9.00;9.00;;;;;16.50;48.10;102017.94;4982109;28;45318;-66
2022/09/21 09:06:15;;;;;;;;;10.75;8.00;;;;;16.63;48.18;102025.66;4969779;28;45566;-66
2022/09/21 09:08:57;;;;;;;;;11.25;10.00;;;;;16.75;47.81;102014.81;4964028;28;46568;-66
2022/09/21 09:11:36;;;;;;;;;13.50;11.75;;;;;16.86;47.93;102020.78;4981827;28;45493;-66
2022/09/21 09:14:20;;;;;;;;;10.25;9.50;;;;;17.01;47.71;102027.59;4964032;28;45466;-66
2022/09/21 09:17:26;;;;;;;;;9.25;7.75;;;;;17.15;47.78;102032.59;4981689;28;45250;-66
2022/09/21 09:20:00;;;;;;;;;11.25;8.50;;;;;17.27;47.62;102018.19;4981703;28;47659;-66
2022/09/21 09:22:33;;;;;;;;;7.50;7.50;;;;;17.42;47.78;102024.97;4963622;28;45359;-66
2022/09/21 09:25:12;;;;;;;;;9.25;9.25;;;;;17.59;47.64;102029.00;4963980;28;45425;-66
2022/09/21 09:27:42;;;;;;;;;9.50;9.50;;;;;17.71;47.42;102024.28;4963756;28;45442;-66
2022/09/21 09:30:16;;;;;;;;;11.50;9.50;;;;;17.87;47.42;102023.91;4981460;28;45441;-66
2022/09/21 09:32:50;;;;;;;;;13.25;13.00;;;;;17.99;47.25;102017.44;4981408;28;45221;-66
2022/09/21 09:35:18;;;;;;;;;10.50;6.75;;;;;18.15;47.20;102016.16;4981824;28;45305;-67
2022/09/21 09:37:46;;;;;;;;;6.00;6.00;;;;;18.29;47.19;102015.78;4981387;28;45273;-67
2022/09/21 09:40:13;;;;;;;;;10.00;9.00;;;;;18.44;46.96;102016.28;4981197;28;45173;-66
2022/09/21 09:43:06;;;;;;;;;7.50;7.25;;;;;18.58;47.01;102008.78;4981272;28;45352;-67
2022/09/21 09:45:58;;;;;;;;;8.25;6.50;;;;;18.77;46.90;102011.81;4981452;28;45406;-67
2022/09/21 09:48:47;;;;;;;;;7.00;5.75;;;;;18.93;46.96;102012.28;4981376;28;45359;-66
2022/09/21 09:51:12;;;;;;;;;8.00;7.75;;;;;19.08;46.72;102018.06;4981356;28;46666;-66
2022/09/21 09:53:38;;;;;;;;;7.00;6.75;;;;;19.23;46.43;102022.06;4981045;28;45351;-66
2022/09/21 09:56:03;;;;;;;;;5.00;5.00;;;;;19.37;46.51;102018.97;4981378;28;45377;-66
2022/09/21 09:58:42;;;;;;;;;4.75;4.00;;;;;19.52;46.16;102022.94;4980879;28;45397;-66
2022/09/21 10:01:07;;;;;;;;;4.00;3.00;;;;;19.65;45.79;102013.66;4962500;28;46962;-66
2022/09/21 10:03:34;;;;;;;;;4.50;4.25;;;;;19.77;45.60;102015.03;4978192;28;45159;-66
2022/09/21 10:06:00;;;;;;;;;5.50;5.00;;;;;19.90;45.86;102018.19;4962019;28;45192;-65
2022/09/21 10:08:43;;;;;;;;;3.00;3.00;;;;;20.03;45.45;102016.88;4960026;28;45189;-66
2022/09/21 10:11:15;;;;;;;;;5.75;3.50;;;;;20.16;45.27;102008.44;4963462;28;46168;-66
2022/09/21 10:13:44;;;;;;;;;3.75;3.00;;;;;20.26;45.57;102005.41;4980701;28;45429;-66
2022/09/21 10:16:23;;;;;;;;;3.50;3.50;;;;;20.38;45.18;102003.25;4963494;28;45485;-66
2022/09/21 10:18:52;;;;;;;;;2.75;1.75;;;;;20.48;45.06;102001.97;4961214;28;45546;-65
2022/09/21 10:21:35;;;;;;;;;4.50;3.00;;;;;20.58;44.33;102002.53;4975787;28;46652;-63
2022/09/21 10:24:04;;;;;;;;;3.25;3.00;;;;;20.70;44.27;101994.03;4972681;28;45450;-65
2022/09/21 10:26:34;;;;;;;;;4.00;4.00;;;;;20.79;43.98;102000.88;4980822;28;45415;-66
2022/09/21 10:29:24;;;;;;;;;3.00;3.00;;;;;20.94;44.15;101997.66;4959770;28;45623;-66
2022/09/21 10:31:58;;;;;;;;;6.00;4.00;;;;;21.06;44.11;101993.63;4939161;28;48288;-67
2022/09/21 10:34:26;;;;;;;;;2.75;2.75;;;;;21.16;43.79;101977.25;4950305;28;45263;-67
2022/09/21 10:36:54;;;;;;;;;3.25;3.25;;;;;21.29;43.77;101985.66;4980170;28;45303;-67
2022/09/21 10:39:26;;;;;;;;;7.50;6.00;;;;;21.48;43.63;101994.66;4962878;28;45558;-67
2022/09/21 10:41:53;;;;;;;;;3.75;3.75;;;;;21.59;43.39;101984.41;4954393;28;46461;-67
2022/09/21 10:44:22;;;;;;;;;4.00;4.00;;;;;21.72;43.29;101990.16;4980259;28;45346;-68
2022/09/21 10:46:49;;;;;;;;;3.50;3.50;;;;;21.86;43.47;101986.00;4978211;28;45477;-67
2022/09/21 10:49:24;;;;;;;;;3.50;3.00;;;;;22.04;43.46;101987.06;4980001;28;45466;-68
2022/09/21 10:51:55;;;;;;;;;3.50;3.00;;;;;22.18;43.45;101979.28;4980154;28;47092;-67
2022/09/21 10:54:26;;;;;;;;;4.00;3.50;;;;;22.35;43.27;101994.63;4977634;28;45367;-68
2022/09/21 10:56:56;;;;;;;;;4.25;4.25;;;;;22.55;43.13;101991.09;4983180;28;45546;-68
2022/09/21 10:59:23;;;;;;;;;5.75;3.75;;;;;22.70;43.02;101986.84;4978737;28;45387;-68
2022/09/21 11:01:51;;;;;;;;;3.75;3.00;;;;;22.85;42.62;101987.91;4969009;28;46236;-66
2022/09/21 11:04:33;;;;;;;;;4.00;2.25;;;;;22.97;42.65;101977.59;4980931;28;45544;-67
2022/09/21 11:07:18;;;;;;;;;3.75;3.00;;;;;23.20;42.66;101979.19;4980165;28;45290;-69
2022/09/21 11:10:22;;;;;;;;;4.25;3.25;;;;;23.46;42.74;101977.03;4962120;28;45391;-68
2022/09/21 11:12:54;;;;;;;;;4.00;4.00;;;;;23.78;42.58;101969.22;4978694;28;45465;-68
2022/09/21 11:15:32;;;;;;;;;3.50;3.50;;;;;24.04;42.43;101969.72;4959165;28;45311;-68
2022/09/21 11:18:19;;;;;;;;;5.00;4.25;;;;;24.25;42.04;101965.03;4978786;28;45359;-69
2022/09/21 11:20:57;;;;;;;;;5.50;5.25;;;;;24.55;42.14;101967.91;4961934;28;45200;-68
2022/09/21 11:24:02;;;;;;;;;5.75;5.00;;;;;24.80;42.20;101961.22;4979839;28;45448;-68
2022/09/21 11:26:45;;;;;;;;;3.25;3.00;;;;;25.14;42.12;101972.78;4976701;28;45382;-67
2022/09/21 11:29:31;;;;;;;;;4.25;4.25;;;;;25.47;42.11;101958.38;4971860;28;45490;-67
2022/09/21 11:32:05;;;;;;;;;6.00;4.75;;;;;25.80;41.35;101960.91;4961610;28;45434;-66